createdAt,value
2023-03-11T00:00:29.376Z,0.38
2023-03-11T00:02:58.555Z,0.39
2023-03-11T00:05:29.069Z,0.41
2023-03-11T00:07:56.289Z,0.40
2023-03-11T00:10:30.367Z,0.46
2023-03-11T00:12:57.851Z,0.46
2023-03-11T00:15:25.064Z,0.49
2023-03-11T00:17:52.345Z,0.49
2023-03-11T00:20:31.425Z,0.48
2023-03-11T00:22:58.447Z,0.55
2023-03-11T00:25:28.216Z,0.50
2023-03-11T00:27:54.994Z,0.56
2023-03-11T00:30:22.561Z,0.52
2023-03-11T00:32:51.044Z,0.53
2023-03-11T00:35:20.397Z,0.50
2023-03-11T00:37:47.996Z,0.48
2023-03-11T00:40:17.315Z,0.49
2023-03-11T00:42:44.045Z,0.48
2023-03-11T00:45:11.534Z,0.47
2023-03-11T00:47:38.169Z,0.46
2023-03-11T00:50:05.308Z,0.42
2023-03-11T00:52:31.732Z,0.45
2023-03-11T00:55:01.461Z,0.42
2023-03-11T00:57:29.115Z,0.44
2023-03-11T00:59:56.252Z,0.37
2023-03-11T01:02:24.205Z,0.39
2023-03-11T01:04:56.849Z,0.40
2023-03-11T01:07:23.341Z,0.38
2023-03-11T01:09:49.765Z,0.31
2023-03-11T01:12:16.171Z,0.38
2023-03-11T01:14:42.578Z,0.38
2023-03-11T01:17:08.986Z,0.34
2023-03-11T01:19:35.492Z,0.39
2023-03-11T01:22:01.876Z,0.35
2023-03-11T01:24:28.265Z,0.34
2023-03-11T01:26:54.651Z,0.38
2023-03-11T01:29:21.049Z,0.38
2023-03-11T01:31:47.453Z,0.33
2023-03-11T01:34:13.991Z,0.35
2023-03-11T01:36:40.910Z,0.33
2023-03-11T01:39:07.274Z,0.33
2023-03-11T01:41:33.667Z,0.28
2023-03-11T01:44:01.479Z,0.31
2023-03-11T01:46:59.708Z,0.21
2023-03-11T01:49:30.478Z,0.17
2023-03-11T01:52:03.656Z,0.09
2023-03-11T01:54:33.498Z,0.17
2023-03-11T01:57:01.971Z,0.18
2023-03-11T01:59:37.565Z,0.18
2023-03-11T02:02:29.614Z,0.17
2023-03-11T02:04:56.954Z,0.17
2023-03-11T02:07:24.218Z,0.18
2023-03-11T02:09:50.832Z,0.18
2023-03-11T02:12:17.771Z,0.16
2023-03-11T02:14:49.670Z,0.14
2023-03-11T02:17:16.646Z,0.14
2023-03-11T02:20:01.822Z,0.10
2023-03-11T02:22:33.242Z,0.09
2023-03-11T02:25:17.358Z,0.05
2023-03-11T02:27:47.768Z,0.01
2023-03-11T02:30:16.142Z,-0.02
2023-03-11T02:32:48.295Z,-0.01
2023-03-11T02:35:16.213Z,-0.07
2023-03-11T02:37:47.477Z,-0.12
2023-03-11T02:40:23.273Z,-0.13
2023-03-11T02:42:57.908Z,-0.13
2023-03-11T02:45:26.553Z,-0.18
2023-03-11T02:47:55.249Z,-0.13
2023-03-11T02:50:22.696Z,-0.14
2023-03-11T02:52:49.893Z,-0.23
2023-03-11T02:55:18.017Z,-0.15
2023-03-11T02:57:44.817Z,-0.19
2023-03-11T03:00:15.090Z,-0.26
2023-03-11T03:02:46.593Z,-0.28
2023-03-11T03:05:13.737Z,-0.27
2023-03-11T03:07:40.874Z,-0.20
2023-03-11T03:10:07.874Z,-0.19
2023-03-11T03:12:34.287Z,-0.12
2023-03-11T03:15:00.749Z,-0.08
2023-03-11T03:17:27.245Z,-0.13
2023-03-11T03:19:53.792Z,-0.13
2023-03-11T03:22:20.175Z,-0.09
2023-03-11T03:24:47.504Z,-0.08
2023-03-11T03:27:14.137Z,-0.12
2023-03-11T03:29:40.530Z,-0.08
2023-03-11T03:32:07.431Z,-0.11
2023-03-11T03:34:34.189Z,-0.10
2023-03-11T03:37:00.711Z,-0.15
2023-03-11T03:39:30.003Z,-0.11
2023-03-11T03:41:57.032Z,-0.07
2023-03-11T03:44:25.761Z,-0.09
2023-03-11T03:46:52.257Z,-0.06
2023-03-11T03:49:18.947Z,-0.09
2023-03-11T03:51:46.168Z,-0.04
2023-03-11T03:54:25.623Z,-0.12
2023-03-11T03:56:52.348Z,-0.11
2023-03-11T03:59:18.783Z,-0.11
2023-03-11T04:01:49.808Z,-0.11
2023-03-11T04:04:17.410Z,-0.13
2023-03-11T04:06:43.852Z,-0.13
2023-03-11T04:09:11.836Z,-0.11
2023-03-11T04:11:38.514Z,-0.10
2023-03-11T04:14:06.037Z,-0.09
2023-03-11T04:16:36.370Z,-0.11
2023-03-11T04:19:09.775Z,-0.09
2023-03-11T04:21:36.547Z,-0.13
2023-03-11T04:24:03.941Z,-0.08
2023-03-11T04:26:34.220Z,-0.06
2023-03-11T04:29:01.417Z,-0.09
2023-03-11T04:31:31.344Z,-0.04
2023-03-11T04:34:00.016Z,-0.10
2023-03-11T04:36:26.532Z,-0.17
2023-03-11T04:38:53.018Z,-0.14
2023-03-11T04:41:20.957Z,-0.13
2023-03-11T04:43:47.358Z,-0.09
2023-03-11T04:46:13.892Z,-0.11
2023-03-11T04:48:41.360Z,-0.22
2023-03-11T04:51:08.350Z,-0.16
2023-03-11T04:53:35.081Z,-0.12
2023-03-11T04:56:02.006Z,-0.11
2023-03-11T04:58:30.541Z,-0.10
2023-03-11T05:01:05.510Z,-0.13
2023-03-11T05:03:32.237Z,-0.13
2023-03-11T05:06:00.085Z,-0.18
2023-03-11T05:08:26.515Z,-0.18
2023-03-11T05:10:53.386Z,-0.11
2023-03-11T05:13:21.288Z,-0.06
2023-03-11T05:15:48.531Z,-0.12
2023-03-11T05:18:15.915Z,-0.14
2023-03-11T05:20:42.784Z,-0.11
2023-03-11T05:23:10.258Z,-0.16
2023-03-11T05:25:37.337Z,-0.19
2023-03-11T05:28:04.691Z,-0.25
2023-03-11T05:30:33.455Z,-0.23
2023-03-11T05:32:59.883Z,-0.21
2023-03-11T05:35:27.104Z,-0.25
2023-03-11T05:37:54.716Z,-0.23
2023-03-11T05:40:22.199Z,-0.19
2023-03-11T05:42:49.105Z,-0.17
2023-03-11T05:45:16.404Z,-0.22
2023-03-11T05:47:45.575Z,-0.17
2023-03-11T05:50:13.988Z,-0.18
2023-03-11T05:52:41.810Z,-0.20
2023-03-11T05:55:11.307Z,-0.14
2023-03-11T05:57:39.946Z,-0.16
2023-03-11T06:00:12.172Z,-0.15
2023-03-11T06:02:44.699Z,-0.17
2023-03-11T06:05:14.919Z,-0.18
2023-03-11T06:07:43.017Z,-0.20
2023-03-11T06:10:10.315Z,-0.26
2023-03-11T06:12:38.455Z,-0.28
2023-03-11T06:15:24.092Z,-0.27
2023-03-11T06:17:52.389Z,-0.27
2023-03-11T06:20:19.425Z,-0.26
2023-03-11T06:22:48.550Z,-0.25
2023-03-11T06:25:15.410Z,-0.23
2023-03-11T06:27:44.516Z,-0.25
2023-03-11T06:30:11.776Z,-0.30
2023-03-11T06:32:48.658Z,-0.30
2023-03-11T06:35:15.156Z,-0.27
2023-03-11T06:37:41.520Z,-0.29
2023-03-11T06:40:10.838Z,-0.31
2023-03-11T06:42:37.180Z,-0.30
2023-03-11T06:45:04.849Z,-0.20
2023-03-11T06:47:31.568Z,-0.27
2023-03-11T06:49:59.125Z,-0.19
2023-03-11T06:52:27.563Z,-0.21
2023-03-11T06:54:55.583Z,-0.28
2023-03-11T06:57:22.195Z,-0.23
2023-03-11T06:59:50.335Z,-0.22
2023-03-11T07:02:17.957Z,-0.13
2023-03-11T07:04:44.443Z,-0.13
2023-03-11T07:07:11.522Z,-0.09
2023-03-11T07:09:38.070Z,-0.10
2023-03-11T07:12:06.818Z,-0.11
2023-03-11T07:14:35.851Z,-0.10
2023-03-11T07:17:02.438Z,-0.10
2023-03-11T07:19:36.474Z,-0.03
2023-03-11T07:22:02.837Z,-0.04
2023-03-11T07:24:29.352Z,-0.01
2023-03-11T07:26:55.736Z,0.00
2023-03-11T07:29:22.063Z,0.05
2023-03-11T07:31:49.067Z,0.07
2023-03-11T07:34:15.467Z,0.17
2023-03-11T07:36:42.454Z,0.20
2023-03-11T07:39:16.492Z,0.27
2023-03-11T07:41:43.942Z,0.27
2023-03-11T07:44:13.484Z,0.32
2023-03-11T07:46:39.954Z,0.37
2023-03-11T07:49:06.313Z,0.45
2023-03-11T07:51:35.351Z,0.53
2023-03-11T07:54:02.970Z,0.58
2023-03-11T07:56:32.093Z,0.64
2023-03-11T07:59:00.436Z,0.69
2023-03-11T08:01:30.475Z,0.75
2023-03-11T08:03:58.559Z,0.76
2023-03-11T08:06:30.983Z,0.80
2023-03-11T08:08:59.389Z,0.89
2023-03-11T08:11:26.196Z,1.02
2023-03-11T08:13:53.595Z,1.08
2023-03-11T08:16:22.245Z,1.16
2023-03-11T08:18:50.233Z,1.30
2023-03-11T08:21:24.599Z,1.25
2023-03-11T08:23:52.148Z,1.30
2023-03-11T08:26:21.911Z,1.34
2023-03-11T08:28:49.372Z,1.36
2023-03-11T08:31:18.438Z,1.48
2023-03-11T08:33:47.296Z,1.43
2023-03-11T08:36:13.924Z,1.53
2023-03-11T08:38:40.459Z,1.57
2023-03-11T08:41:06.859Z,1.74
2023-03-11T08:43:33.602Z,1.81
2023-03-11T08:46:01.512Z,1.84
2023-03-11T08:48:28.350Z,2.05
2023-03-11T08:50:54.958Z,2.24
2023-03-11T08:53:23.022Z,2.33
2023-03-11T08:55:56.404Z,2.43
2023-03-11T08:58:22.748Z,2.45
2023-03-11T09:00:49.172Z,2.56
2023-03-11T09:03:15.486Z,2.71
2023-03-11T09:05:41.948Z,2.76
2023-03-11T09:08:08.455Z,2.85
2023-03-11T09:10:34.787Z,2.98
2023-03-11T09:13:01.184Z,2.92
2023-03-11T09:15:27.636Z,2.91
2023-03-11T09:17:54.239Z,2.96
2023-03-11T09:20:20.624Z,2.86
2023-03-11T09:22:47.265Z,2.66
2023-03-11T09:25:14.029Z,2.51
2023-03-11T09:27:41.277Z,2.59
2023-03-11T09:30:09.202Z,2.55
2023-03-11T09:32:35.781Z,2.51
2023-03-11T09:35:02.538Z,2.60
2023-03-11T09:37:30.117Z,2.92
2023-03-11T09:39:56.447Z,3.12
2023-03-11T09:42:54.156Z,3.09
2023-03-11T09:45:33.631Z,2.93
2023-03-11T09:48:30.338Z,2.74
2023-03-11T09:51:10.348Z,2.65
2023-03-11T09:53:43.399Z,2.65
2023-03-11T09:56:14.837Z,2.66
2023-03-11T09:58:43.321Z,2.91
2023-03-11T10:01:26.333Z,3.12
2023-03-11T10:04:00.407Z,3.33
2023-03-11T10:06:29.862Z,3.59
2023-03-11T10:09:28.942Z,3.86
2023-03-11T10:12:25.868Z,3.95
2023-03-11T10:14:55.029Z,4.09
2023-03-11T10:17:41.600Z,4.13
2023-03-11T10:20:17.966Z,3.93
2023-03-11T10:23:12.416Z,4.01
2023-03-11T10:25:54.141Z,4.12
2023-03-11T10:28:24.342Z,4.23
2023-03-11T10:30:57.343Z,4.39
2023-03-11T10:33:39.879Z,4.52
2023-03-11T10:36:12.526Z,4.69
2023-03-11T10:38:46.622Z,4.75
2023-03-11T10:41:30.030Z,4.50
2023-03-11T10:44:17.190Z,4.40
2023-03-11T10:46:43.608Z,4.44
2023-03-11T10:49:18.910Z,4.39
2023-03-11T10:51:47.573Z,4.44
2023-03-11T10:54:30.237Z,4.61
2023-03-11T10:56:59.623Z,4.90
2023-03-11T10:59:33.528Z,5.07
2023-03-11T11:02:26.125Z,5.15
2023-03-11T11:05:22.731Z,4.89
2023-03-11T11:07:53.060Z,4.70
2023-03-11T11:10:27.932Z,4.72
2023-03-11T11:13:02.398Z,4.68
2023-03-11T11:15:35.399Z,4.73
2023-03-11T11:18:17.937Z,4.67
2023-03-11T11:21:01.936Z,4.70
2023-03-11T11:23:42.592Z,4.68
2023-03-11T11:26:21.879Z,4.68
2023-03-11T11:29:09.036Z,4.53
2023-03-11T11:31:38.538Z,4.53
2023-03-11T11:34:30.789Z,4.55
2023-03-11T11:37:00.201Z,4.56
2023-03-11T11:39:28.877Z,4.80
2023-03-11T11:41:56.632Z,5.03
2023-03-11T11:44:33.736Z,5.19
2023-03-11T11:47:17.248Z,5.30
2023-03-11T11:49:57.218Z,5.19
2023-03-11T11:52:37.021Z,4.88
2023-03-11T11:55:30.599Z,4.83
2023-03-11T11:57:57.556Z,4.83
2023-03-11T12:00:34.264Z,4.83
2023-03-11T12:03:34.025Z,4.85
2023-03-11T12:06:27.775Z,4.81
2023-03-11T12:09:08.317Z,4.88
2023-03-11T12:11:59.487Z,5.07
2023-03-11T12:14:57.969Z,4.99
2023-03-11T12:17:26.353Z,4.78
2023-03-11T12:20:27.929Z,4.92
2023-03-11T12:23:21.283Z,5.32
2023-03-11T12:26:03.942Z,5.85
2023-03-11T12:28:39.416Z,6.08
2023-03-11T12:31:10.100Z,5.63
2023-03-11T12:33:43.372Z,5.73
2023-03-11T12:36:33.880Z,5.64
2023-03-11T12:39:03.279Z,5.88
2023-03-11T12:41:41.831Z,6.18
2023-03-11T12:44:29.044Z,6.60
2023-03-11T12:46:58.299Z,6.98
2023-03-11T12:49:31.029Z,7.36
2023-03-11T12:52:04.741Z,7.53
2023-03-11T12:54:36.826Z,7.49
2023-03-11T12:57:21.214Z,7.39
2023-03-11T13:00:17.923Z,7.26
2023-03-11T13:03:21.839Z,7.17
2023-03-11T13:06:11.651Z,7.16
2023-03-11T13:08:50.758Z,6.78
2023-03-11T13:11:26.171Z,6.53
2023-03-11T13:13:52.639Z,6.16
2023-03-11T13:16:19.179Z,6.14
2023-03-11T13:18:51.566Z,6.08
2023-03-11T13:21:27.169Z,5.94
2023-03-11T13:24:19.280Z,5.98
2023-03-11T13:27:07.088Z,5.94
2023-03-11T13:30:00.997Z,6.16
2023-03-11T13:32:52.404Z,6.18
2023-03-11T13:35:40.442Z,6.21
2023-03-11T13:38:13.830Z,6.14
2023-03-11T13:40:43.763Z,5.73
2023-03-11T13:43:21.817Z,5.38
2023-03-11T13:46:01.784Z,5.33
2023-03-11T13:48:37.794Z,5.48
2023-03-11T13:51:06.621Z,5.04
2023-03-11T13:53:44.165Z,5.11
2023-03-11T13:56:32.637Z,5.03
2023-03-11T13:59:24.859Z,5.02
2023-03-11T14:01:52.911Z,5.04
2023-03-11T14:04:27.433Z,5.19
2023-03-11T14:06:54.328Z,5.03
2023-03-11T14:09:22.718Z,5.09
2023-03-11T14:11:49.425Z,4.96
2023-03-11T14:14:38.872Z,4.80
2023-03-11T14:17:09.541Z,4.91
2023-03-11T14:19:36.698Z,4.96
2023-03-11T14:22:08.861Z,4.94
2023-03-11T14:24:36.255Z,5.03
2023-03-11T14:27:07.181Z,5.26
2023-03-11T14:29:38.971Z,5.36
2023-03-11T14:32:29.422Z,5.63
2023-03-11T14:34:56.602Z,5.81
2023-03-11T14:37:31.674Z,5.72
2023-03-11T14:39:58.068Z,5.58
2023-03-11T14:42:38.237Z,5.51
2023-03-11T14:45:11.265Z,5.45
2023-03-11T14:47:40.265Z,5.43
2023-03-11T14:50:13.179Z,5.47
2023-03-11T14:52:45.383Z,5.56
2023-03-11T14:55:16.138Z,5.41
2023-03-11T14:57:47.519Z,5.47
2023-03-11T15:00:19.287Z,5.56
2023-03-11T15:02:59.471Z,5.74
2023-03-11T15:05:41.301Z,5.69
2023-03-11T15:08:08.161Z,5.61
2023-03-11T15:10:34.895Z,5.69
2023-03-11T15:13:07.818Z,5.51
2023-03-11T15:15:34.564Z,5.48
2023-03-11T15:18:01.766Z,5.28
2023-03-11T15:20:36.878Z,5.15
2023-03-11T15:23:05.864Z,5.18
2023-03-11T15:25:34.823Z,5.32
2023-03-11T15:28:20.554Z,5.32
2023-03-11T15:30:46.960Z,5.38
2023-03-11T15:33:31.862Z,5.48
2023-03-11T15:35:58.333Z,5.49
2023-03-11T15:38:27.520Z,5.51
2023-03-11T15:41:00.983Z,5.34
2023-03-11T15:43:33.524Z,5.25
2023-03-11T15:46:01.952Z,5.12
2023-03-11T15:48:29.830Z,4.96
2023-03-11T15:50:58.463Z,4.87
2023-03-11T15:53:27.345Z,4.88
2023-03-11T15:56:03.866Z,4.87
2023-03-11T15:58:33.150Z,4.96
2023-03-11T16:01:00.052Z,5.11
2023-03-11T16:03:26.396Z,5.15
2023-03-11T16:05:52.923Z,5.11
2023-03-11T16:08:19.435Z,5.07
2023-03-11T16:10:45.851Z,5.08
2023-03-11T16:13:13.965Z,5.06
2023-03-11T16:15:42.166Z,4.94
2023-03-11T16:18:09.767Z,4.97
2023-03-11T16:20:38.551Z,4.94
2023-03-11T16:23:07.172Z,4.87
2023-03-11T16:25:36.774Z,4.72
2023-03-11T16:28:03.765Z,4.74
2023-03-11T16:30:32.411Z,4.70
2023-03-11T16:32:59.128Z,4.66
2023-03-11T16:35:26.134Z,4.58
2023-03-11T16:37:53.548Z,4.60
2023-03-11T16:40:25.180Z,4.55
2023-03-11T16:42:55.811Z,4.46
2023-03-11T16:45:22.401Z,4.45
2023-03-11T16:47:48.730Z,4.48
2023-03-11T16:50:15.071Z,4.55
2023-03-11T16:52:41.457Z,4.55
2023-03-11T16:55:08.956Z,4.52
2023-03-11T16:57:37.663Z,4.59
2023-03-11T17:00:06.761Z,4.50
2023-03-11T17:02:33.318Z,4.39
2023-03-11T17:04:59.729Z,4.37
2023-03-11T17:07:26.826Z,4.36
2023-03-11T17:09:53.161Z,4.37
2023-03-11T17:12:20.134Z,4.33
2023-03-11T17:14:46.689Z,4.15
2023-03-11T17:17:13.154Z,4.06
2023-03-11T17:19:39.642Z,3.99
2023-03-11T17:22:06.132Z,3.89
2023-03-11T17:24:32.509Z,3.89
2023-03-11T17:26:58.875Z,3.89
2023-03-11T17:29:25.396Z,3.77
2023-03-11T17:31:51.896Z,3.67
2023-03-11T17:34:18.366Z,3.66
2023-03-11T17:36:44.758Z,3.71
2023-03-11T17:39:11.049Z,3.71
2023-03-11T17:41:37.439Z,3.66
2023-03-11T17:44:03.904Z,3.57
2023-03-11T17:46:30.339Z,3.52
2023-03-11T17:48:56.885Z,3.50
2023-03-11T17:51:25.788Z,3.46
2023-03-11T17:53:54.631Z,3.36
2023-03-11T17:56:21.950Z,3.28
2023-03-11T17:58:49.651Z,3.14
2023-03-11T18:01:21.544Z,3.00
2023-03-11T18:03:48.701Z,2.83
2023-03-11T18:06:16.967Z,2.72
2023-03-11T18:08:43.298Z,2.64
2023-03-11T18:11:13.095Z,2.53
2023-03-11T18:13:40.461Z,2.47
2023-03-11T18:16:09.271Z,2.38
2023-03-11T18:18:36.598Z,2.33
2023-03-11T18:21:27.620Z,2.29
2023-03-11T18:23:55.957Z,2.25
2023-03-11T18:26:23.795Z,2.17
2023-03-11T18:28:55.859Z,2.15
2023-03-11T18:31:23.815Z,2.02
2023-03-11T18:33:53.333Z,1.99
2023-03-11T18:36:23.276Z,1.95
2023-03-11T18:38:51.917Z,1.94
2023-03-11T18:41:18.309Z,1.91
2023-03-11T18:43:44.848Z,1.88
2023-03-11T18:46:14.621Z,1.85
2023-03-11T18:48:41.434Z,1.81
2023-03-11T18:51:09.215Z,1.83
2023-03-11T18:53:35.906Z,1.79
2023-03-11T18:56:04.862Z,1.82
2023-03-11T18:58:31.393Z,1.86
2023-03-11T19:01:06.824Z,1.85
2023-03-11T19:03:33.481Z,1.83
2023-03-11T19:06:00.097Z,1.78
2023-03-11T19:08:27.009Z,1.67
2023-03-11T19:10:53.598Z,1.62
2023-03-11T19:13:20.415Z,1.57
2023-03-11T19:15:47.334Z,1.54
2023-03-11T19:18:14.619Z,1.49
2023-03-11T19:20:41.186Z,1.48
2023-03-11T19:23:08.231Z,1.42
2023-03-11T19:25:35.323Z,1.34
2023-03-11T19:28:01.793Z,1.32
2023-03-11T19:30:28.247Z,1.21
2023-03-11T19:32:54.790Z,1.11
2023-03-11T19:35:25.894Z,1.03
2023-03-11T19:37:56.730Z,0.93
2023-03-11T19:40:23.663Z,0.85
2023-03-11T19:42:50.167Z,0.82
2023-03-11T19:45:16.643Z,0.77
2023-03-11T19:47:46.344Z,0.68
2023-03-11T19:50:12.731Z,0.62
2023-03-11T19:52:39.312Z,0.68
2023-03-11T19:55:06.424Z,0.61
2023-03-11T19:57:32.812Z,0.57
2023-03-11T19:59:59.508Z,0.59
2023-03-11T20:02:26.032Z,0.57
2023-03-11T20:04:52.633Z,0.55
2023-03-11T20:07:19.393Z,0.66
2023-03-11T20:09:45.919Z,0.60
2023-03-11T20:12:12.391Z,0.59
2023-03-11T20:14:40.940Z,0.56
2023-03-11T20:17:07.958Z,0.60
2023-03-11T20:19:36.238Z,0.64
2023-03-11T20:22:02.718Z,0.69
2023-03-11T20:24:29.038Z,0.69
2023-03-11T20:26:55.780Z,0.72
2023-03-11T20:29:22.191Z,0.75
2023-03-11T20:31:50.498Z,0.77
2023-03-11T20:34:16.981Z,0.78
2023-03-11T20:36:43.434Z,0.79
2023-03-11T20:39:10.685Z,0.83
2023-03-11T20:41:38.997Z,0.92
2023-03-11T20:44:08.099Z,0.95
2023-03-11T20:46:34.781Z,0.94
2023-03-11T20:49:02.055Z,0.94
2023-03-11T20:51:28.687Z,0.89
2023-03-11T20:53:55.174Z,0.92
2023-03-11T20:56:23.918Z,0.91
2023-03-11T20:58:51.435Z,0.96
2023-03-11T21:01:21.481Z,0.92
2023-03-11T21:03:48.439Z,0.90
2023-03-11T21:06:19.114Z,0.90
2023-03-11T21:08:46.043Z,0.85
2023-03-11T21:11:13.429Z,0.91
2023-03-11T21:13:40.246Z,0.94
2023-03-11T21:16:07.716Z,0.87
2023-03-11T21:18:34.977Z,0.85
2023-03-11T21:21:01.987Z,0.85
2023-03-11T21:23:28.443Z,0.81
2023-03-11T21:26:03.175Z,0.85
2023-03-11T21:28:30.408Z,0.81
2023-03-11T21:30:58.686Z,0.74
2023-03-11T21:33:25.839Z,0.75
2023-03-11T21:35:57.039Z,0.61
2023-03-11T21:38:24.799Z,0.56
2023-03-11T21:40:52.316Z,0.51
2023-03-11T21:43:20.634Z,0.44
2023-03-11T21:45:47.314Z,0.37
2023-03-11T21:48:14.183Z,0.32
2023-03-11T21:50:41.551Z,0.28
2023-03-11T21:53:08.146Z,0.24
2023-03-11T21:55:34.587Z,0.23
2023-03-11T21:58:01.093Z,0.28
2023-03-11T22:00:27.768Z,0.25
2023-03-11T22:02:54.246Z,0.20
2023-03-11T22:05:20.588Z,0.20
2023-03-11T22:07:47.060Z,0.21
2023-03-11T22:10:13.535Z,0.22
2023-03-11T22:12:40.213Z,0.20
2023-03-11T22:15:07.022Z,0.24
2023-03-11T22:17:33.516Z,0.21
2023-03-11T22:20:00.239Z,0.20
2023-03-11T22:22:26.787Z,0.14
2023-03-11T22:24:53.204Z,0.15
2023-03-11T22:27:19.537Z,0.13
2023-03-11T22:29:45.853Z,0.12
2023-03-11T22:32:12.211Z,0.13
2023-03-11T22:34:38.599Z,0.11
2023-03-11T22:37:05.097Z,0.13
2023-03-11T22:39:31.454Z,0.13
2023-03-11T22:41:57.802Z,0.12
2023-03-11T22:44:24.257Z,0.16
2023-03-11T22:46:50.778Z,0.16
2023-03-11T22:49:17.124Z,0.20
2023-03-11T22:51:43.446Z,0.17
2023-03-11T22:54:09.869Z,0.18
2023-03-11T22:56:36.212Z,0.21
2023-03-11T22:59:02.801Z,0.24
2023-03-11T23:01:29.114Z,0.23
2023-03-11T23:03:55.587Z,0.21
2023-03-11T23:06:22.053Z,0.27
2023-03-11T23:08:48.891Z,0.25
2023-03-11T23:11:21.032Z,0.27
2023-03-11T23:13:48.432Z,0.30
2023-03-11T23:16:20.319Z,0.29
2023-03-11T23:18:47.972Z,0.35
2023-03-11T23:21:17.352Z,0.27
2023-03-11T23:23:44.202Z,0.31
2023-03-11T23:26:12.102Z,0.25
2023-03-11T23:28:41.194Z,0.36
2023-03-11T23:31:12.517Z,0.36
2023-03-11T23:33:39.650Z,0.32
2023-03-11T23:36:12.626Z,0.34
2023-03-11T23:38:39.223Z,0.26
2023-03-11T23:41:11.319Z,0.32
2023-03-11T23:43:38.031Z,0.38
2023-03-11T23:46:04.791Z,0.35
2023-03-11T23:48:31.400Z,0.35
2023-03-11T23:50:58.074Z,0.36
2023-03-11T23:53:26.621Z,0.31
2023-03-11T23:55:53.154Z,0.34
2023-03-11T23:58:20.335Z,0.33
